createdAt,value
2019-06-26T00:00:46.927Z,22.98
2019-06-26T00:01:46.994Z,22.89
2019-06-26T00:02:46.871Z,22.80
2019-06-26T00:03:46.889Z,22.80
2019-06-26T00:04:46.881Z,22.86
2019-06-26T00:05:47.929Z,22.83
2019-06-26T00:06:46.828Z,22.78
2019-06-26T00:07:46.922Z,22.74
2019-06-26T00:08:46.846Z,22.81
2019-06-26T00:09:46.860Z,22.77
2019-06-26T00:10:46.796Z,22.74
2019-06-26T00:11:46.851Z,22.76
2019-06-26T00:12:46.775Z,22.77
2019-06-26T00:13:46.856Z,22.68
2019-06-26T00:14:46.771Z,22.70
2019-06-26T00:15:46.820Z,22.70
2019-06-26T00:16:46.724Z,22.65
2019-06-26T00:17:46.793Z,22.67
2019-06-26T00:18:46.696Z,22.68
2019-06-26T00:19:46.733Z,22.76
2019-06-26T00:20:46.683Z,22.77
2019-06-26T00:21:46.708Z,22.78
2019-06-26T00:22:46.677Z,22.80
2019-06-26T00:23:46.724Z,22.78
2019-06-26T00:24:46.660Z,22.81
2019-06-26T00:25:46.628Z,22.76
2019-06-26T00:26:46.640Z,22.80
2019-06-26T00:28:01.598Z,22.77
2019-06-26T00:28:46.592Z,22.73
2019-06-26T00:29:47.708Z,22.77
2019-06-26T00:30:46.581Z,22.77
2019-06-26T00:31:47.600Z,22.74
2019-06-26T00:32:46.557Z,22.62
2019-06-26T00:33:46.583Z,22.63
2019-06-26T00:34:46.564Z,22.65
2019-06-26T00:35:46.598Z,22.65
2019-06-26T00:36:46.512Z,22.62
2019-06-26T00:37:46.506Z,22.63
2019-06-26T00:38:46.488Z,22.70
2019-06-26T00:39:46.591Z,22.70
2019-06-26T00:40:46.461Z,22.65
2019-06-26T00:41:46.534Z,22.63
2019-06-26T00:42:46.436Z,22.68
2019-06-26T00:43:46.468Z,22.68
2019-06-26T00:44:46.437Z,22.63
2019-06-26T00:45:47.485Z,22.62
2019-06-26T00:46:46.392Z,22.59
2019-06-26T00:47:46.476Z,22.61
2019-06-26T00:48:46.373Z,22.55
2019-06-26T00:49:46.632Z,22.51
2019-06-26T00:50:46.375Z,22.52
2019-06-26T00:51:46.406Z,22.51
2019-06-26T00:52:46.324Z,22.46
2019-06-26T00:53:46.420Z,22.53
2019-06-26T00:54:46.303Z,22.51
2019-06-26T00:55:46.360Z,22.47
2019-06-26T00:56:46.280Z,22.56
2019-06-26T00:57:46.341Z,22.49
2019-06-26T00:58:46.266Z,22.53
2019-06-26T00:59:46.353Z,22.53
2019-06-26T01:00:46.253Z,22.49
2019-06-26T01:01:46.261Z,22.51
2019-06-26T01:02:46.221Z,22.46
2019-06-26T01:03:46.276Z,22.43
2019-06-26T01:04:46.205Z,22.38
2019-06-26T01:05:46.225Z,22.34
2019-06-26T01:06:46.175Z,22.37
2019-06-26T01:07:46.202Z,22.43
2019-06-26T01:08:46.151Z,22.36
2019-06-26T01:09:46.218Z,22.38
2019-06-26T01:10:46.151Z,22.33
2019-06-26T01:12:02.123Z,22.41
2019-06-26T01:12:46.103Z,22.37
2019-06-26T01:13:58.188Z,22.38
2019-06-26T01:14:47.088Z,22.47
2019-06-26T01:15:47.106Z,22.40
2019-06-26T01:16:46.064Z,22.51
2019-06-26T01:17:46.070Z,22.49
2019-06-26T01:18:46.066Z,22.51
2019-06-26T01:19:46.079Z,22.49
2019-06-26T01:20:46.037Z,22.47
2019-06-26T01:21:46.097Z,22.44
2019-06-26T01:22:45.995Z,22.47
2019-06-26T01:23:46.106Z,22.41
2019-06-26T01:24:46.027Z,22.41
2019-06-26T01:25:46.048Z,22.40
2019-06-26T01:26:45.950Z,22.30
2019-06-26T01:27:46.061Z,22.37
2019-06-26T01:28:45.933Z,22.34
2019-06-26T01:29:45.943Z,22.37
2019-06-26T01:30:45.927Z,22.36
2019-06-26T01:31:45.966Z,22.36
2019-06-26T01:32:46.653Z,22.38
2019-06-26T01:33:45.981Z,22.37
2019-06-26T01:34:45.874Z,22.51
2019-06-26T01:35:47.147Z,22.47
2019-06-26T01:36:45.886Z,22.47
2019-06-26T01:37:46.616Z,22.61
2019-06-26T01:38:45.848Z,22.63
2019-06-26T01:39:45.911Z,22.73
2019-06-26T01:40:45.852Z,22.78
2019-06-26T01:41:45.861Z,22.78
2019-06-26T01:42:45.778Z,22.95
2019-06-26T01:43:45.852Z,22.98
2019-06-26T01:44:45.754Z,23.04
2019-06-26T01:45:45.872Z,23.11
2019-06-26T01:46:45.741Z,23.20
2019-06-26T01:47:45.765Z,23.28
2019-06-26T01:48:45.703Z,23.42
2019-06-26T01:49:46.799Z,23.40
2019-06-26T01:50:45.711Z,23.55
2019-06-26T01:51:45.729Z,23.55
2019-06-26T01:52:45.684Z,23.56
2019-06-26T01:53:45.696Z,23.54
2019-06-26T01:54:45.649Z,23.49
2019-06-26T01:55:46.669Z,23.56
2019-06-26T01:56:45.617Z,23.55
2019-06-26T01:57:45.628Z,23.69
2019-06-26T01:58:45.605Z,23.69
2019-06-26T01:59:46.666Z,23.73
2019-06-26T02:00:45.630Z,23.73
2019-06-26T02:01:45.663Z,23.73
2019-06-26T02:02:45.579Z,23.63
2019-06-26T02:03:45.562Z,23.74
2019-06-26T02:04:45.527Z,23.71
2019-06-26T02:05:45.618Z,23.76
2019-06-26T02:06:45.506Z,23.77
2019-06-26T02:07:45.594Z,23.73
2019-06-26T02:08:45.492Z,23.82
2019-06-26T02:09:45.503Z,23.79
2019-06-26T02:10:45.500Z,23.81
2019-06-26T02:11:46.546Z,23.77
2019-06-26T02:12:45.451Z,23.82
2019-06-26T02:13:45.534Z,23.81
2019-06-26T02:14:45.451Z,23.86
2019-06-26T02:15:45.482Z,23.86
2019-06-26T02:16:45.398Z,23.91
2019-06-26T02:17:45.460Z,23.99
2019-06-26T02:18:45.388Z,23.96
2019-06-26T02:19:45.469Z,23.94
2019-06-26T02:20:45.362Z,24.07
2019-06-26T02:21:45.413Z,23.91
2019-06-26T02:22:45.332Z,23.89
2019-06-26T02:23:45.417Z,23.94
2019-06-26T02:24:45.331Z,23.92
2019-06-26T02:25:45.437Z,23.95
2019-06-26T02:26:45.312Z,24.00
2019-06-26T02:27:45.331Z,23.95
2019-06-26T02:28:45.270Z,23.99
2019-06-26T02:29:46.361Z,23.89
2019-06-26T02:30:45.248Z,23.85
2019-06-26T02:31:45.298Z,23.82
2019-06-26T02:32:45.315Z,23.82
2019-06-26T02:33:45.261Z,23.79
2019-06-26T02:34:45.208Z,23.82
2019-06-26T02:35:45.280Z,23.82
2019-06-26T02:36:45.197Z,23.86
2019-06-26T02:37:45.306Z,23.88
2019-06-26T02:38:45.158Z,24.01
2019-06-26T02:39:45.198Z,24.01
2019-06-26T02:40:45.143Z,23.99
2019-06-26T02:41:46.172Z,23.99
2019-06-26T02:42:45.119Z,23.94
2019-06-26T02:43:45.126Z,23.88
2019-06-26T02:44:53.370Z,23.94
2019-06-26T02:45:46.103Z,23.89
2019-06-26T02:46:45.182Z,23.86
2019-06-26T02:47:45.066Z,23.94
2019-06-26T02:48:46.088Z,23.89
2019-06-26T02:49:45.053Z,23.85
2019-06-26T02:50:45.074Z,23.81
2019-06-26T02:51:45.048Z,23.85
2019-06-26T02:52:45.097Z,23.82
2019-06-26T02:53:45.022Z,23.95
2019-06-26T02:54:45.096Z,23.92
2019-06-26T02:55:44.970Z,24.03
2019-06-26T02:56:45.048Z,23.89
2019-06-26T02:57:44.969Z,23.88
2019-06-26T02:58:45.022Z,23.86
2019-06-26T02:59:44.925Z,23.89
2019-06-26T03:00:44.961Z,23.96
2019-06-26T03:01:44.922Z,23.88
2019-06-26T03:02:44.957Z,24.07
2019-06-26T03:03:44.892Z,24.07
2019-06-26T03:04:44.958Z,24.04
2019-06-26T03:05:44.876Z,24.11
2019-06-26T03:06:44.912Z,24.13
2019-06-26T03:07:44.876Z,23.92
2019-06-26T03:08:44.884Z,23.95
2019-06-26T03:09:44.824Z,23.99
2019-06-26T03:10:44.905Z,24.04
2019-06-26T03:11:44.813Z,24.04
2019-06-26T03:12:44.827Z,24.07
2019-06-26T03:13:44.779Z,24.06
2019-06-26T03:14:44.870Z,24.06
2019-06-26T03:15:44.749Z,24.10
2019-06-26T03:16:44.871Z,24.09
2019-06-26T03:17:54.863Z,23.99
2019-06-26T03:18:45.719Z,23.92
2019-06-26T03:19:44.756Z,23.79
2019-06-26T03:20:44.698Z,23.77
2019-06-26T03:21:44.815Z,23.66
2019-06-26T03:22:44.674Z,23.70
2019-06-26T03:23:44.805Z,23.67
2019-06-26T03:24:44.648Z,23.64
2019-06-26T03:26:13.697Z,23.59
2019-06-26T03:26:44.644Z,23.64
2019-06-26T03:27:44.627Z,23.59
2019-06-26T03:28:45.646Z,23.52
2019-06-26T03:29:44.594Z,23.54
2019-06-26T03:30:44.651Z,23.56
2019-06-26T03:31:44.603Z,23.49
2019-06-26T03:32:44.646Z,23.55
2019-06-26T03:33:44.665Z,23.45
2019-06-26T03:34:45.579Z,23.51
2019-06-26T03:35:44.534Z,23.54
2019-06-26T03:36:44.595Z,23.55
2019-06-26T03:37:44.508Z,23.58
2019-06-26T03:38:44.581Z,23.58
2019-06-26T03:39:44.509Z,23.64
2019-06-26T03:40:44.600Z,23.58
2019-06-26T03:41:44.501Z,23.59
2019-06-26T03:42:44.508Z,23.69
2019-06-26T03:43:44.441Z,23.69
2019-06-26T03:44:44.522Z,23.73
2019-06-26T03:45:44.427Z,23.82
2019-06-26T03:46:44.471Z,23.81
2019-06-26T03:47:44.404Z,23.82
2019-06-26T03:48:45.470Z,23.94
2019-06-26T03:49:44.522Z,23.91
2019-06-26T03:50:44.466Z,23.96
2019-06-26T03:51:44.391Z,23.99
2019-06-26T03:52:44.379Z,24.03
2019-06-26T03:53:44.357Z,24.04
2019-06-26T03:54:44.377Z,24.10
2019-06-26T03:55:44.312Z,24.19
2019-06-26T03:56:44.405Z,24.09
2019-06-26T03:57:44.311Z,24.13
2019-06-26T03:58:44.301Z,24.11
2019-06-26T03:59:44.277Z,24.32
2019-06-26T04:00:44.317Z,24.24
2019-06-26T04:01:44.251Z,24.18
2019-06-26T04:02:44.364Z,24.21
2019-06-26T04:03:44.230Z,24.25
2019-06-26T04:04:44.239Z,24.28
2019-06-26T04:05:44.201Z,24.25
2019-06-26T04:06:44.258Z,24.36
2019-06-26T04:07:44.210Z,24.40
2019-06-26T04:08:44.266Z,24.48
2019-06-26T04:09:44.164Z,24.47
2019-06-26T04:10:51.141Z,24.48
2019-06-26T04:11:44.144Z,24.56
2019-06-26T04:12:46.173Z,24.61
2019-06-26T04:13:44.134Z,24.71
2019-06-26T04:14:45.128Z,24.74
2019-06-26T04:15:44.099Z,24.66
2019-06-26T04:16:44.124Z,24.74
2019-06-26T04:17:44.090Z,24.68
2019-06-26T04:18:44.129Z,24.82
2019-06-26T04:19:44.070Z,24.79
2019-06-26T04:20:44.145Z,24.79
2019-06-26T04:21:44.028Z,24.79
2019-06-26T04:22:47.441Z,24.82
2019-06-26T04:23:44.006Z,24.85
2019-06-26T04:24:44.069Z,24.82
2019-06-26T04:25:43.995Z,24.92
2019-06-26T04:26:44.097Z,24.93
2019-06-26T04:27:43.990Z,24.99
2019-06-26T04:28:44.004Z,25.03
2019-06-26T04:29:43.948Z,25.14
2019-06-26T04:30:44.009Z,25.09
2019-06-26T04:31:43.961Z,25.11
2019-06-26T04:32:43.957Z,25.21
2019-06-26T04:33:43.912Z,25.16
2019-06-26T04:34:43.941Z,25.34
2019-06-26T04:35:43.888Z,25.26
2019-06-26T04:36:43.971Z,25.25
2019-06-26T04:37:43.886Z,25.37
2019-06-26T04:38:43.862Z,25.34
2019-06-26T04:39:43.863Z,25.36
2019-06-26T04:40:43.877Z,25.49
2019-06-26T04:41:43.821Z,25.48
2019-06-26T04:42:43.962Z,25.49
2019-06-26T04:43:43.796Z,25.66
2019-06-26T04:44:43.814Z,25.63
2019-06-26T04:45:57.248Z,25.63
2019-06-26T04:46:44.778Z,25.83
2019-06-26T04:47:43.910Z,25.88
2019-06-26T04:48:43.742Z,25.86
2019-06-26T04:49:43.832Z,25.96
2019-06-26T04:50:43.732Z,26.06
2019-06-26T04:51:43.795Z,26.13
2019-06-26T04:52:43.707Z,26.13
2019-06-26T04:53:43.768Z,26.18
2019-06-26T04:54:43.681Z,26.26
2019-06-26T04:55:43.771Z,26.34
2019-06-26T04:56:43.648Z,26.39
2019-06-26T04:57:54.700Z,26.70
2019-06-26T04:58:43.633Z,26.66
2019-06-26T04:59:45.641Z,26.73
2019-06-26T05:00:43.608Z,26.89
2019-06-26T05:01:44.635Z,27.08
2019-06-26T05:02:43.624Z,27.34
2019-06-26T05:03:43.749Z,27.35
2019-06-26T05:04:43.563Z,27.37
2019-06-26T05:05:44.603Z,27.47
2019-06-26T05:06:43.549Z,27.47
2019-06-26T05:07:43.583Z,27.50
2019-06-26T05:08:43.528Z,27.72
2019-06-26T05:09:43.565Z,27.82
2019-06-26T05:10:43.501Z,27.78
2019-06-26T05:11:43.581Z,27.83
2019-06-26T05:12:43.493Z,28.00
2019-06-26T05:13:43.484Z,28.15
2019-06-26T05:14:43.492Z,28.06
2019-06-26T05:15:43.510Z,28.04
2019-06-26T05:16:43.438Z,28.25
2019-06-26T05:17:43.543Z,28.35
2019-06-26T05:18:43.415Z,28.45
2019-06-26T05:19:43.459Z,28.47
2019-06-26T05:20:43.391Z,28.68
2019-06-26T05:21:43.438Z,28.62
2019-06-26T05:22:43.384Z,28.45
2019-06-26T05:23:43.463Z,28.23
2019-06-26T05:24:46.408Z,28.10
2019-06-26T05:25:43.399Z,28.33
2019-06-26T05:26:43.330Z,28.28
2019-06-26T05:27:43.405Z,28.22
2019-06-26T05:28:43.318Z,28.28
2019-06-26T05:29:43.393Z,28.47
2019-06-26T05:30:43.290Z,28.22
2019-06-26T05:31:43.309Z,28.37
2019-06-26T05:32:43.285Z,28.30
2019-06-26T05:33:43.316Z,28.33
2019-06-26T05:34:43.261Z,28.49
2019-06-26T05:35:43.335Z,28.77
2019-06-26T05:36:43.245Z,28.94
2019-06-26T05:37:43.402Z,29.20
2019-06-26T05:38:43.217Z,29.31
2019-06-26T05:39:43.258Z,29.10
2019-06-26T05:40:43.201Z,29.22
2019-06-26T05:41:51.149Z,29.07
2019-06-26T05:42:43.174Z,28.84
2019-06-26T05:43:46.690Z,28.97
2019-06-26T05:44:43.146Z,29.02
2019-06-26T05:45:50.699Z,29.15
2019-06-26T05:46:43.126Z,29.27
2019-06-26T05:47:44.129Z,29.40
2019-06-26T05:48:43.142Z,29.50
2019-06-26T05:49:43.132Z,29.43
2019-06-26T05:50:43.219Z,29.53
2019-06-26T05:51:43.135Z,29.73
2019-06-26T05:52:43.353Z,29.74
2019-06-26T05:53:43.231Z,29.83
2019-06-26T05:54:43.034Z,29.90
2019-06-26T05:55:43.055Z,30.13
2019-06-26T05:56:45.334Z,30.29
2019-06-26T05:57:43.081Z,30.36
2019-06-26T05:58:43.014Z,30.56
2019-06-26T05:59:43.099Z,30.73
2019-06-26T06:00:43.009Z,30.71
2019-06-26T06:01:43.000Z,30.35
2019-06-26T06:02:42.959Z,30.61
2019-06-26T06:03:43.064Z,30.77
2019-06-26T06:04:42.935Z,30.83
2019-06-26T06:05:43.106Z,31.00
2019-06-26T06:06:42.910Z,30.99
2019-06-26T06:07:42.950Z,30.99
2019-06-26T06:08:43.131Z,30.78
2019-06-26T06:09:42.948Z,30.61
2019-06-26T06:10:42.872Z,30.17
2019-06-26T06:11:42.966Z,30.24
2019-06-26T06:12:42.851Z,30.54
2019-06-26T06:13:43.027Z,30.52
2019-06-26T06:14:42.829Z,30.86
2019-06-26T06:15:42.882Z,31.18
2019-06-26T06:16:47.385Z,31.35
2019-06-26T06:17:43.820Z,31.57
2019-06-26T06:18:43.555Z,31.86
2019-06-26T06:19:42.832Z,31.95
2019-06-26T06:20:42.773Z,31.57
2019-06-26T06:21:42.830Z,31.42
2019-06-26T06:22:42.740Z,31.26
2019-06-26T06:23:42.884Z,31.33
2019-06-26T06:24:42.719Z,31.51
2019-06-26T06:25:42.750Z,31.28
2019-06-26T06:26:42.710Z,30.85
2019-06-26T06:27:43.799Z,30.78
2019-06-26T06:28:42.698Z,31.04
2019-06-26T06:29:57.730Z,31.26
2019-06-26T06:30:42.655Z,31.23
2019-06-26T06:31:51.189Z,31.08
2019-06-26T06:32:42.678Z,31.02
2019-06-26T06:33:45.703Z,30.86
2019-06-26T06:34:42.618Z,31.13
2019-06-26T06:35:43.641Z,31.39
2019-06-26T06:36:42.595Z,31.51
2019-06-26T06:37:42.697Z,31.59
2019-06-26T06:38:42.618Z,31.95
2019-06-26T06:39:42.644Z,31.55
2019-06-26T06:40:42.551Z,31.54
2019-06-26T06:41:43.568Z,31.62
2019-06-26T06:42:42.535Z,31.74
2019-06-26T06:43:42.734Z,31.98
2019-06-26T06:44:42.513Z,32.22
2019-06-26T06:45:42.579Z,32.42
2019-06-26T06:46:42.516Z,32.48
2019-06-26T06:47:42.598Z,32.17
2019-06-26T06:48:42.509Z,31.63
2019-06-26T06:49:42.510Z,31.48
2019-06-26T06:50:42.457Z,31.54
2019-06-26T06:51:42.522Z,31.41
2019-06-26T06:52:42.431Z,31.47
2019-06-26T06:53:42.518Z,31.63
2019-06-26T06:54:42.414Z,31.62
2019-06-26T06:55:42.439Z,31.63
2019-06-26T06:56:42.392Z,31.69
2019-06-26T06:57:42.457Z,31.79
2019-06-26T06:58:42.387Z,31.98
2019-06-26T06:59:42.472Z,32.00
2019-06-26T07:00:42.357Z,31.97
2019-06-26T07:01:42.383Z,32.01
2019-06-26T07:02:42.338Z,32.05
2019-06-26T07:03:42.421Z,31.98
2019-06-26T07:04:42.327Z,32.15
2019-06-26T07:05:42.412Z,32.15
2019-06-26T07:06:42.300Z,32.24
2019-06-26T07:07:42.375Z,32.60
2019-06-26T07:08:42.298Z,32.53
2019-06-26T07:09:42.337Z,32.60
2019-06-26T07:10:42.258Z,32.88
2019-06-26T07:11:42.380Z,32.91
2019-06-26T07:12:42.240Z,33.10
2019-06-26T07:13:42.293Z,33.38
2019-06-26T07:14:42.221Z,33.12
2019-06-26T07:15:44.335Z,33.01
2019-06-26T07:16:42.212Z,32.88
2019-06-26T07:17:51.211Z,32.54
2019-06-26T07:18:42.200Z,32.20
2019-06-26T07:19:42.201Z,32.41
2019-06-26T07:20:44.634Z,32.56
2019-06-26T07:21:42.217Z,32.78
2019-06-26T07:22:42.135Z,33.10
2019-06-26T07:23:43.176Z,33.29
2019-06-26T07:24:42.138Z,33.44
2019-06-26T07:25:42.151Z,33.82
2019-06-26T07:26:42.100Z,34.03
2019-06-26T07:27:42.158Z,33.79
2019-06-26T07:28:42.081Z,33.42
2019-06-26T07:29:42.195Z,33.36
2019-06-26T07:30:42.071Z,33.05
2019-06-26T07:31:42.106Z,33.38
2019-06-26T07:32:42.055Z,33.48
2019-06-26T07:33:42.094Z,33.67
2019-06-26T07:34:42.035Z,33.84
2019-06-26T07:35:42.135Z,33.87
2019-06-26T07:36:42.015Z,33.75
2019-06-26T07:37:42.032Z,33.72
2019-06-26T07:38:41.978Z,33.79
2019-06-26T07:39:42.076Z,33.89
2019-06-26T07:40:41.954Z,33.95
2019-06-26T07:41:42.051Z,33.97
2019-06-26T07:42:41.967Z,33.54
2019-06-26T07:43:41.962Z,33.81
2019-06-26T07:44:41.981Z,33.97
2019-06-26T07:45:41.987Z,34.37
2019-06-26T07:46:41.899Z,34.55
2019-06-26T07:47:43.965Z,34.58
2019-06-26T07:48:41.915Z,34.58
2019-06-26T07:49:41.961Z,34.47
2019-06-26T07:50:41.863Z,34.53
2019-06-26T07:51:41.935Z,34.26
2019-06-26T07:52:41.847Z,34.31
2019-06-26T07:53:41.950Z,34.11
2019-06-26T07:54:42.000Z,34.18
2019-06-26T07:55:41.844Z,34.21
2019-06-26T07:56:41.800Z,33.95
2019-06-26T07:57:41.856Z,34.03
2019-06-26T07:58:41.777Z,34.10
2019-06-26T07:59:41.979Z,34.16
2019-06-26T08:00:41.767Z,34.37
2019-06-26T08:01:41.862Z,34.56
2019-06-26T08:02:41.758Z,34.51
2019-06-26T08:03:41.788Z,34.55
2019-06-26T08:04:41.741Z,34.60
2019-06-26T08:05:43.401Z,34.65
2019-06-26T08:06:41.706Z,34.78
2019-06-26T08:07:41.752Z,34.83
2019-06-26T08:08:41.678Z,34.78
2019-06-26T08:09:41.760Z,34.75
2019-06-26T08:10:41.654Z,34.78
2019-06-26T08:11:41.739Z,34.76
2019-06-26T08:12:41.651Z,34.65
2019-06-26T08:13:41.673Z,34.35
2019-06-26T08:14:41.630Z,34.38
2019-06-26T08:15:41.684Z,34.51
2019-06-26T08:16:41.618Z,35.08
2019-06-26T08:17:55.937Z,34.96
2019-06-26T08:18:42.616Z,35.16
2019-06-26T08:19:41.573Z,35.64
2019-06-26T08:21:00.445Z,35.56
2019-06-26T08:21:46.380Z,35.07
2019-06-26T08:22:41.534Z,35.01
2019-06-26T08:23:41.610Z,35.26
2019-06-26T08:24:41.535Z,35.50
2019-06-26T08:25:41.536Z,35.49
2019-06-26T08:26:41.507Z,35.47
2019-06-26T08:27:41.546Z,35.52
2019-06-26T08:28:41.472Z,35.49
2019-06-26T08:29:41.584Z,35.59
2019-06-26T08:30:41.509Z,35.56
2019-06-26T08:31:41.477Z,35.53
2019-06-26T08:32:41.424Z,35.82
2019-06-26T08:33:41.516Z,35.76
2019-06-26T08:34:41.600Z,35.41
2019-06-26T08:35:41.502Z,35.52
2019-06-26T08:36:41.413Z,35.37
2019-06-26T08:37:41.422Z,35.57
2019-06-26T08:38:41.361Z,35.82
2019-06-26T08:39:41.468Z,35.84
2019-06-26T08:40:41.348Z,35.86
2019-06-26T08:41:41.439Z,35.90
2019-06-26T08:42:41.327Z,35.93
2019-06-26T08:43:41.349Z,35.79
2019-06-26T08:44:41.315Z,35.49
2019-06-26T08:45:41.370Z,35.42
2019-06-26T08:46:41.283Z,35.53
2019-06-26T08:47:41.372Z,35.94
2019-06-26T08:48:41.268Z,36.20
2019-06-26T08:49:41.320Z,36.54
2019-06-26T08:50:41.238Z,36.50
2019-06-26T08:51:41.327Z,36.69
2019-06-26T08:52:41.226Z,36.59
2019-06-26T08:53:42.338Z,36.53
2019-06-26T08:54:41.264Z,36.35
2019-06-26T08:55:41.232Z,36.53
2019-06-26T08:56:41.187Z,36.18
2019-06-26T08:57:41.665Z,36.41
2019-06-26T08:58:41.163Z,36.25
2019-06-26T08:59:43.216Z,35.84
2019-06-26T09:00:41.162Z,35.86
2019-06-26T09:01:41.185Z,35.59
2019-06-26T09:02:41.132Z,35.13
2019-06-26T09:03:42.183Z,35.15
2019-06-26T09:04:41.103Z,35.18
2019-06-26T09:05:48.102Z,35.49
2019-06-26T09:06:42.120Z,36.20
2019-06-26T09:07:41.102Z,36.45
2019-06-26T09:08:41.073Z,36.80
2019-06-26T09:09:41.120Z,36.24
2019-06-26T09:10:44.677Z,35.94
2019-06-26T09:11:41.153Z,36.22
2019-06-26T09:12:41.038Z,36.72
2019-06-26T09:13:41.046Z,37.00
2019-06-26T09:14:41.002Z,36.94
2019-06-26T09:15:41.493Z,36.48
2019-06-26T09:16:41.043Z,36.38
2019-06-26T09:17:41.077Z,36.69
2019-06-26T09:18:40.988Z,36.88
2019-06-26T09:19:40.982Z,36.84
2019-06-26T09:20:40.962Z,37.03
2019-06-26T09:21:41.026Z,36.80
2019-06-26T09:22:40.925Z,36.75
2019-06-26T09:23:40.998Z,37.15
2019-06-26T09:24:40.913Z,37.44
2019-06-26T09:25:40.957Z,37.44
2019-06-26T09:26:40.889Z,37.26
2019-06-26T09:27:40.921Z,37.04
2019-06-26T09:28:40.865Z,37.03
2019-06-26T09:29:40.933Z,37.21
2019-06-26T09:30:40.875Z,37.16
2019-06-26T09:31:40.960Z,37.15
2019-06-26T09:32:40.825Z,37.07
2019-06-26T09:33:40.876Z,37.29
2019-06-26T09:34:40.806Z,37.57
2019-06-26T09:35:40.914Z,37.92
2019-06-26T09:36:40.820Z,38.04
2019-06-26T09:37:40.887Z,38.02
2019-06-26T09:38:40.767Z,37.92
2019-06-26T09:39:40.798Z,37.98
2019-06-26T09:40:40.766Z,37.98
2019-06-26T09:41:56.191Z,37.76
2019-06-26T09:42:40.767Z,37.83
2019-06-26T09:43:47.789Z,38.13
2019-06-26T09:44:40.711Z,38.28
2019-06-26T09:45:40.768Z,38.27
2019-06-26T09:46:40.698Z,38.05
2019-06-26T09:47:42.697Z,37.64
2019-06-26T09:48:52.197Z,37.67
2019-06-26T09:49:41.657Z,38.07
2019-06-26T09:50:40.711Z,38.13
2019-06-26T09:51:40.638Z,37.86
2019-06-26T09:52:40.683Z,37.63
2019-06-26T09:53:47.175Z,37.64
2019-06-26T09:54:41.721Z,37.58
2019-06-26T09:55:40.624Z,37.11
2019-06-26T09:56:40.608Z,37.57
2019-06-26T09:57:40.579Z,37.72
2019-06-26T09:58:40.625Z,37.31
2019-06-26T09:59:40.569Z,36.29
2019-06-26T10:00:40.667Z,35.82
2019-06-26T10:01:40.557Z,36.24
2019-06-26T10:02:40.546Z,36.45
2019-06-26T10:03:40.521Z,36.63
2019-06-26T10:04:40.565Z,36.33
2019-06-26T10:05:40.515Z,36.72
2019-06-26T10:06:40.571Z,37.23
2019-06-26T10:07:40.485Z,37.40
2019-06-26T10:08:40.483Z,37.71
2019-06-26T10:09:40.465Z,37.75
2019-06-26T10:10:40.528Z,37.44
2019-06-26T10:11:40.448Z,37.72
2019-06-26T10:12:40.513Z,37.68
2019-06-26T10:13:40.425Z,37.47
2019-06-26T10:14:47.082Z,37.63
2019-06-26T10:15:41.813Z,37.48
2019-06-26T10:16:40.440Z,37.10
2019-06-26T10:17:40.382Z,37.57
2019-06-26T10:18:40.455Z,37.63
2019-06-26T10:19:40.366Z,37.75
2019-06-26T10:20:40.395Z,37.61
2019-06-26T10:21:40.352Z,37.80
2019-06-26T10:22:40.374Z,37.97
2019-06-26T10:23:40.331Z,38.00
2019-06-26T10:24:40.390Z,38.46
2019-06-26T10:25:40.330Z,39.03
2019-06-26T10:26:40.401Z,39.32
2019-06-26T10:27:40.289Z,38.51
2019-06-26T10:28:40.312Z,38.41
2019-06-26T10:29:40.270Z,38.35
2019-06-26T10:30:44.763Z,37.86
2019-06-26T10:31:40.249Z,37.90
2019-06-26T10:32:49.255Z,38.12
2019-06-26T10:33:40.232Z,38.62
2019-06-26T10:34:40.256Z,38.62
2019-06-26T10:35:40.233Z,38.60
2019-06-26T10:36:47.745Z,38.07
2019-06-26T10:37:40.194Z,37.86
2019-06-26T10:38:41.205Z,38.14
2019-06-26T10:39:40.176Z,37.82
2019-06-26T10:40:40.228Z,37.36
2019-06-26T10:41:40.163Z,37.64
2019-06-26T10:42:40.206Z,37.79
2019-06-26T10:43:40.135Z,37.90
2019-06-26T10:44:40.219Z,38.01
2019-06-26T10:45:40.147Z,38.17
2019-06-26T10:46:40.135Z,37.85
2019-06-26T10:47:40.326Z,37.63
2019-06-26T10:48:40.152Z,37.41
2019-06-26T10:49:40.111Z,37.43
2019-06-26T10:50:49.409Z,37.36
2019-06-26T10:51:41.074Z,37.73
2019-06-26T10:52:40.075Z,37.44
2019-06-26T10:53:40.034Z,37.47
2019-06-26T10:54:43.997Z,37.83
2019-06-26T10:55:40.018Z,38.27
2019-06-26T10:56:40.131Z,38.27
2019-06-26T10:57:39.991Z,38.25
2019-06-26T10:58:40.007Z,38.69
2019-06-26T10:59:39.973Z,38.73
2019-06-26T11:00:40.045Z,38.50
2019-06-26T11:01:39.978Z,38.27
2019-06-26T11:02:40.036Z,38.14
2019-06-26T11:03:39.934Z,37.79
2019-06-26T11:04:39.949Z,37.92
2019-06-26T11:05:39.926Z,38.32
2019-06-26T11:06:40.013Z,38.31
2019-06-26T11:07:39.911Z,37.78
2019-06-26T11:08:39.971Z,37.63
2019-06-26T11:09:39.876Z,37.58
2019-06-26T11:10:39.883Z,37.41
2019-06-26T11:11:39.873Z,37.72
2019-06-26T11:12:39.920Z,38.35
2019-06-26T11:13:39.840Z,38.70
2019-06-26T11:14:39.912Z,39.08
2019-06-26T11:15:39.818Z,39.08
2019-06-26T11:16:39.855Z,38.72
2019-06-26T11:17:39.865Z,38.57
2019-06-26T11:18:39.846Z,38.53
2019-06-26T11:19:44.253Z,38.58
2019-06-26T11:20:40.886Z,38.39
2019-06-26T11:21:39.777Z,38.29
2019-06-26T11:22:39.762Z,38.41
2019-06-26T11:23:39.743Z,37.86
2019-06-26T11:24:56.268Z,38.02
2019-06-26T11:25:39.791Z,37.88
2019-06-26T11:26:40.744Z,36.97
2019-06-26T11:27:39.734Z,37.00
2019-06-26T11:28:40.722Z,36.75
2019-06-26T11:29:39.682Z,37.15
2019-06-26T11:30:39.715Z,37.18
2019-06-26T11:31:39.688Z,37.15
2019-06-26T11:32:39.731Z,37.11
2019-06-26T11:33:39.645Z,37.22
2019-06-26T11:34:39.752Z,37.43
2019-06-26T11:35:39.621Z,37.57
2019-06-26T11:36:39.755Z,37.56
2019-06-26T11:37:39.602Z,37.88
2019-06-26T11:38:39.674Z,38.00
2019-06-26T11:39:39.590Z,38.02
2019-06-26T11:40:39.741Z,38.12
2019-06-26T11:41:39.578Z,38.54
2019-06-26T11:42:39.608Z,38.29
2019-06-26T11:43:39.551Z,38.28
2019-06-26T11:44:39.608Z,38.68
2019-06-26T11:45:39.604Z,38.50
2019-06-26T11:46:39.600Z,38.00
2019-06-26T11:47:39.502Z,37.92
2019-06-26T11:48:39.531Z,38.20
2019-06-26T11:49:39.498Z,38.41
2019-06-26T11:50:39.541Z,38.66
2019-06-26T11:51:39.477Z,38.58
2019-06-26T11:52:39.557Z,38.63
2019-06-26T11:53:39.445Z,38.53
2019-06-26T11:54:39.486Z,38.07
2019-06-26T11:55:39.423Z,38.07
2019-06-26T11:56:39.511Z,37.67
2019-06-26T11:57:39.491Z,37.64
2019-06-26T11:58:39.494Z,37.79
2019-06-26T11:59:39.383Z,38.04
2019-06-26T12:00:41.670Z,37.66
2019-06-26T12:01:39.386Z,37.85
2019-06-26T12:02:39.419Z,37.68
2019-06-26T12:03:39.346Z,37.83
2019-06-26T12:04:39.433Z,37.97
2019-06-26T12:05:39.332Z,37.94
2019-06-26T12:06:39.386Z,37.68
2019-06-26T12:07:39.304Z,38.13
2019-06-26T12:08:41.406Z,38.63
2019-06-26T12:09:39.329Z,38.92
2019-06-26T12:10:48.281Z,39.27
2019-06-26T12:11:39.279Z,38.95
2019-06-26T12:12:39.285Z,38.70
2019-06-26T12:13:39.259Z,38.73
2019-06-26T12:14:46.773Z,38.29
2019-06-26T12:15:39.232Z,38.65
2019-06-26T12:16:39.245Z,38.88
2019-06-26T12:17:39.224Z,38.96
2019-06-26T12:18:39.221Z,38.57
2019-06-26T12:19:39.743Z,38.76
2019-06-26T12:20:39.244Z,38.79
2019-06-26T12:21:39.171Z,38.39
2019-06-26T12:22:39.286Z,38.12
2019-06-26T12:23:39.158Z,38.12
2019-06-26T12:24:39.241Z,38.35
2019-06-26T12:25:39.138Z,38.25
2019-06-26T12:26:39.176Z,38.41
2019-06-26T12:27:39.123Z,38.31
2019-06-26T12:28:39.188Z,37.73
2019-06-26T12:29:39.092Z,37.29
2019-06-26T12:30:39.100Z,37.29
2019-06-26T12:31:39.076Z,36.96
2019-06-26T12:32:42.148Z,37.10
2019-06-26T12:33:40.060Z,37.47
2019-06-26T12:34:39.129Z,37.75
2019-06-26T12:35:39.031Z,38.01
2019-06-26T12:36:39.046Z,38.04
2019-06-26T12:37:39.034Z,37.73
2019-06-26T12:38:39.051Z,37.78
2019-06-26T12:39:38.996Z,37.63
2019-06-26T12:40:39.065Z,37.91
2019-06-26T12:41:38.974Z,37.90
2019-06-26T12:42:39.021Z,37.95
2019-06-26T12:43:38.959Z,37.75
2019-06-26T12:44:38.996Z,37.97
2019-06-26T12:45:38.934Z,38.31
2019-06-26T12:46:39.005Z,38.38
2019-06-26T12:47:38.928Z,38.29
2019-06-26T12:48:39.025Z,37.34
2019-06-26T12:49:38.983Z,37.19
2019-06-26T12:50:38.931Z,37.28
2019-06-26T12:51:38.882Z,37.04
2019-06-26T12:52:38.979Z,36.97